Terminal Aerodrome Forecast
Issued by NWS Sterling, VA

Current Version | Previous Version | Graphics & Text | Print | Product List | Glossary On
Versions: 1 2 3 4 5 6 7 8 9 10 11 12
000
FTUS41 KLWX 162300
TAFMRB
TAF
KMRB 162327Z 1700/1724 02006KT P6SM BKN070
     FM170800 VRB03KT 5SM BR SCT200
     FM171300 00000KT P6SM SCT200
     FM171500 16004KT P6SM BKN050=

USA.gov is the U.S. government's official web portal to all federal, state and local government web resources and services.